createdAt,value
2022-10-06T00:00:40.087Z,7.90
2022-10-06T00:01:40.084Z,11.30
2022-10-06T00:02:40.086Z,7.90
2022-10-06T00:03:40.039Z,9.70
2022-10-06T00:04:40.032Z,13.60
2022-10-06T00:05:40.025Z,9.90
2022-10-06T00:06:40.039Z,6.40
2022-10-06T00:07:40.000Z,9.70
2022-10-06T00:08:40.012Z,10.90
2022-10-06T00:09:39.979Z,8.90
2022-10-06T00:10:39.979Z,8.40
2022-10-06T00:11:39.970Z,9.90
2022-10-06T00:12:39.986Z,10.30
2022-10-06T00:13:39.953Z,10.90
2022-10-06T00:14:39.941Z,7.60
2022-10-06T00:15:39.983Z,11.50
2022-10-06T00:16:39.927Z,12.00
2022-10-06T00:17:39.917Z,13.60
2022-10-06T00:18:39.927Z,11.80
2022-10-06T00:19:39.900Z,12.00
2022-10-06T00:20:39.909Z,12.30
2022-10-06T00:21:39.885Z,11.60
2022-10-06T00:22:39.871Z,12.00
2022-10-06T00:23:39.868Z,14.90
2022-10-06T00:24:39.862Z,11.50
2022-10-06T00:25:39.845Z,12.00
2022-10-06T00:26:39.871Z,10.60
2022-10-06T00:27:39.833Z,10.40
2022-10-06T00:28:39.862Z,8.80
2022-10-06T00:29:39.813Z,10.80
2022-10-06T00:30:39.801Z,11.30
2022-10-06T00:31:39.797Z,11.80
2022-10-06T00:32:39.805Z,9.00
2022-10-06T00:33:39.778Z,8.20
2022-10-06T00:34:39.805Z,9.10
2022-10-06T00:35:39.772Z,10.60
2022-10-06T00:36:39.755Z,8.30
2022-10-06T00:37:39.739Z,10.60
2022-10-06T00:38:39.759Z,10.10
2022-10-06T00:39:39.728Z,8.70
2022-10-06T00:40:39.727Z,9.50
2022-10-06T00:41:39.732Z,10.80
2022-10-06T00:42:39.708Z,10.80
2022-10-06T00:43:39.697Z,10.00
2022-10-06T00:44:39.694Z,9.50
2022-10-06T00:45:39.678Z,9.40
2022-10-06T00:46:39.713Z,11.20
2022-10-06T00:47:39.687Z,10.70
2022-10-06T00:48:39.659Z,14.90
2022-10-06T00:49:39.644Z,11.50
2022-10-06T00:50:39.625Z,7.00
2022-10-06T00:51:39.651Z,8.30
2022-10-06T00:52:39.617Z,9.80
2022-10-06T00:53:39.611Z,13.30
2022-10-06T00:54:39.617Z,12.30
2022-10-06T00:55:39.598Z,12.90
2022-10-06T00:56:39.592Z,11.50
2022-10-06T00:57:39.573Z,10.30
2022-10-06T00:58:39.554Z,11.30
2022-10-06T00:59:39.553Z,12.50
2022-10-06T01:00:39.577Z,14.60
2022-10-06T01:01:39.570Z,10.30
2022-10-06T01:02:39.635Z,10.40
2022-10-06T01:03:39.541Z,10.50
2022-10-06T01:04:39.520Z,8.60
2022-10-06T01:05:39.519Z,7.50
2022-10-06T01:06:39.489Z,11.60
2022-10-06T01:07:39.484Z,10.30
2022-10-06T01:08:39.487Z,10.50
2022-10-06T01:09:39.462Z,9.00
2022-10-06T01:10:39.459Z,10.30
2022-10-06T01:11:39.468Z,9.80
2022-10-06T01:12:39.470Z,9.10
2022-10-06T01:13:39.432Z,11.30
2022-10-06T01:14:39.444Z,8.10
2022-10-06T01:15:39.464Z,9.70
2022-10-06T01:16:39.422Z,12.40
2022-10-06T01:17:39.432Z,11.80
2022-10-06T01:18:39.420Z,9.30
2022-10-06T01:19:39.392Z,8.90
2022-10-06T01:20:39.391Z,8.90
2022-10-06T01:21:39.373Z,9.60
2022-10-06T01:22:39.372Z,8.40
2022-10-06T01:23:39.359Z,9.50
2022-10-06T01:24:39.366Z,7.90
2022-10-06T01:25:39.352Z,7.80
2022-10-06T01:26:39.339Z,11.10
2022-10-06T01:27:39.312Z,9.40
2022-10-06T01:28:39.420Z,9.50
2022-10-06T01:29:39.306Z,9.60
2022-10-06T01:30:39.326Z,11.40
2022-10-06T01:31:39.284Z,8.90
2022-10-06T01:32:39.279Z,10.90
2022-10-06T01:33:39.263Z,9.00
2022-10-06T01:34:39.258Z,8.20
2022-10-06T01:35:39.257Z,8.50
2022-10-06T01:36:39.264Z,9.60
2022-10-06T01:37:39.232Z,10.20
2022-10-06T01:38:39.223Z,9.30
2022-10-06T01:39:39.212Z,9.00
2022-10-06T01:40:39.213Z,8.20
2022-10-06T01:41:39.220Z,10.20
2022-10-06T01:42:39.194Z,9.50
2022-10-06T01:43:39.207Z,9.50
2022-10-06T01:44:39.179Z,11.30
2022-10-06T01:45:39.165Z,9.00
2022-10-06T01:46:39.238Z,5.90
2022-10-06T01:47:39.179Z,6.90
2022-10-06T01:48:39.138Z,7.50
2022-10-06T01:49:39.134Z,8.00
2022-10-06T01:50:39.122Z,8.40
2022-10-06T01:51:39.118Z,11.00
2022-10-06T01:53:46.128Z,6.70
2022-10-06T01:54:39.110Z,7.70
2022-10-06T01:55:39.095Z,8.50
2022-10-06T01:56:39.085Z,8.00
2022-10-06T01:57:39.075Z,8.20
2022-10-06T01:58:39.057Z,8.20
2022-10-06T01:59:39.065Z,8.60
2022-10-06T02:00:39.041Z,8.10
2022-10-06T02:01:39.122Z,7.80
2022-10-06T02:02:39.021Z,8.20
2022-10-06T02:03:39.014Z,7.80
2022-10-06T02:04:39.021Z,7.90
2022-10-06T02:05:38.988Z,7.60
2022-10-06T02:06:39.012Z,8.30
2022-10-06T02:07:38.980Z,7.30
2022-10-06T02:08:38.977Z,7.50
2022-10-06T02:09:38.988Z,9.50
2022-10-06T02:10:38.962Z,8.70
2022-10-06T02:11:38.945Z,5.70
2022-10-06T02:12:38.934Z,7.80
2022-10-06T02:13:38.931Z,7.40
2022-10-06T02:14:38.925Z,6.70
2022-10-06T02:15:39.004Z,7.10
2022-10-06T02:16:38.900Z,7.40
2022-10-06T02:17:38.896Z,7.40
2022-10-06T02:18:38.881Z,8.60
2022-10-06T02:19:38.879Z,7.10
2022-10-06T02:20:38.868Z,7.50
2022-10-06T02:21:38.886Z,6.30
2022-10-06T02:22:38.861Z,4.30
2022-10-06T02:23:38.851Z,6.50
2022-10-06T02:24:38.846Z,5.60
2022-10-06T02:25:38.829Z,5.50
2022-10-06T02:26:38.819Z,7.00
2022-10-06T02:27:38.821Z,4.50
2022-10-06T02:28:38.844Z,3.60
2022-10-06T02:29:38.803Z,4.10
2022-10-06T02:30:38.784Z,5.00
2022-10-06T02:31:38.856Z,4.70
2022-10-06T02:32:38.778Z,3.40
2022-10-06T02:33:38.765Z,4.80
2022-10-06T02:34:38.759Z,4.70
2022-10-06T02:35:38.740Z,4.30
2022-10-06T02:36:38.740Z,6.90
2022-10-06T02:37:38.752Z,4.40
2022-10-06T02:38:38.724Z,4.50
2022-10-06T02:39:38.723Z,3.00
2022-10-06T02:40:38.717Z,1.80
2022-10-06T02:41:38.703Z,5.50
2022-10-06T02:42:38.689Z,3.00
2022-10-06T02:43:38.709Z,4.20
2022-10-06T02:44:38.700Z,4.80
2022-10-06T02:45:38.664Z,3.50
2022-10-06T02:46:38.711Z,3.80
2022-10-06T02:47:38.657Z,2.80
2022-10-06T02:48:38.645Z,3.40
2022-10-06T02:49:38.658Z,5.00
2022-10-06T02:50:38.630Z,5.40
2022-10-06T02:51:38.624Z,6.70
2022-10-06T02:52:38.635Z,4.60
2022-10-06T02:53:38.598Z,3.00
2022-10-06T02:54:38.598Z,2.80
2022-10-06T02:55:38.592Z,3.70
2022-10-06T02:56:38.579Z,3.20
2022-10-06T02:57:38.569Z,3.90
2022-10-06T02:58:38.579Z,3.10
2022-10-06T02:59:38.546Z,3.60
2022-10-06T03:00:38.534Z,5.30
2022-10-06T03:01:38.668Z,3.40
2022-10-06T03:02:38.619Z,4.60
2022-10-06T03:03:38.508Z,2.50
2022-10-06T03:04:38.501Z,6.10
2022-10-06T03:05:38.511Z,3.30
2022-10-06T03:06:38.504Z,3.80
2022-10-06T03:07:38.477Z,3.30
2022-10-06T03:08:38.475Z,2.70
2022-10-06T03:09:38.463Z,4.20
2022-10-06T03:10:38.460Z,3.40
2022-10-06T03:11:38.475Z,2.60
2022-10-06T03:12:38.440Z,2.80
2022-10-06T03:13:38.437Z,2.00
2022-10-06T03:14:38.429Z,3.10
2022-10-06T03:15:38.419Z,2.70
2022-10-06T03:16:38.414Z,3.70
2022-10-06T03:17:38.420Z,2.70
2022-10-06T03:18:38.401Z,4.10
2022-10-06T03:19:38.383Z,1.70
2022-10-06T03:20:38.373Z,2.00
2022-10-06T03:21:38.375Z,2.70
2022-10-06T03:22:38.373Z,3.50
2022-10-06T03:23:38.367Z,4.30
2022-10-06T03:24:38.337Z,2.80
2022-10-06T03:25:38.334Z,2.20
2022-10-06T03:26:38.315Z,3.10
2022-10-06T03:27:38.330Z,4.10
2022-10-06T03:28:38.356Z,4.20
2022-10-06T03:29:38.297Z,3.30
2022-10-06T03:30:38.311Z,3.60
2022-10-06T03:31:38.343Z,4.50
2022-10-06T03:32:38.272Z,3.00
2022-10-06T03:33:38.269Z,3.70
2022-10-06T03:34:38.285Z,2.70
2022-10-06T03:35:38.268Z,3.30
2022-10-06T03:36:38.251Z,3.10
2022-10-06T03:37:38.229Z,5.60
2022-10-06T03:38:38.225Z,3.60
2022-10-06T03:39:38.226Z,3.70
2022-10-06T03:40:38.208Z,4.80
2022-10-06T03:41:38.216Z,3.60
2022-10-06T03:42:38.193Z,4.50
2022-10-06T03:43:38.172Z,3.90
2022-10-06T03:44:38.189Z,5.90
2022-10-06T03:45:38.199Z,4.10
2022-10-06T03:46:38.245Z,5.50
2022-10-06T03:47:38.140Z,4.40
2022-10-06T03:48:38.129Z,4.20
2022-10-06T03:49:38.123Z,4.40
2022-10-06T03:50:38.138Z,5.60
2022-10-06T03:51:38.111Z,5.30
2022-10-06T03:52:38.123Z,4.00
2022-10-06T03:53:38.085Z,5.30
2022-10-06T03:54:38.085Z,3.40
2022-10-06T03:55:38.074Z,3.50
2022-10-06T03:56:38.064Z,5.60
2022-10-06T03:57:38.053Z,4.00
2022-10-06T03:58:38.082Z,5.00
2022-10-06T03:59:38.042Z,4.40
2022-10-06T04:00:38.071Z,7.60
2022-10-06T04:01:38.108Z,7.50
2022-10-06T04:02:38.014Z,5.00
2022-10-06T04:03:38.021Z,3.50
2022-10-06T04:04:38.023Z,3.10
2022-10-06T04:05:37.990Z,5.00
2022-10-06T04:06:37.987Z,5.40
2022-10-06T04:07:37.998Z,5.60
2022-10-06T04:08:37.998Z,4.10
2022-10-06T04:09:37.965Z,2.90
2022-10-06T04:10:37.949Z,3.90
2022-10-06T04:11:37.948Z,4.50
2022-10-06T04:12:37.938Z,4.10
2022-10-06T04:13:37.931Z,4.40
2022-10-06T04:14:37.937Z,3.80
2022-10-06T04:15:37.904Z,5.90
2022-10-06T04:16:37.963Z,6.70
2022-10-06T04:17:37.896Z,4.20
2022-10-06T04:18:37.890Z,5.50
2022-10-06T04:19:37.884Z,5.00
2022-10-06T04:20:37.865Z,2.30
2022-10-06T04:21:37.859Z,2.40
2022-10-06T04:22:37.865Z,4.00
2022-10-06T04:23:37.837Z,5.20
2022-10-06T04:24:37.833Z,4.70
2022-10-06T04:25:37.817Z,4.80
2022-10-06T04:26:37.816Z,7.10
2022-10-06T04:27:37.835Z,4.10
2022-10-06T04:28:37.833Z,3.40
2022-10-06T04:29:37.793Z,3.00
2022-10-06T04:30:37.866Z,3.80
2022-10-06T04:31:37.835Z,3.40
2022-10-06T04:32:37.768Z,3.70
2022-10-06T04:33:37.774Z,4.60
2022-10-06T04:34:37.750Z,5.50
2022-10-06T04:35:37.732Z,5.00
2022-10-06T04:36:37.735Z,4.70
2022-10-06T04:37:37.737Z,3.30
2022-10-06T04:38:37.712Z,4.00
2022-10-06T04:39:37.719Z,3.60
2022-10-06T04:40:37.685Z,3.30
2022-10-06T04:41:37.684Z,7.20
2022-10-06T04:42:37.673Z,4.20
2022-10-06T04:43:37.672Z,5.60
2022-10-06T04:44:37.676Z,7.50
2022-10-06T04:45:37.675Z,7.00
2022-10-06T04:46:43.104Z,6.70
2022-10-06T04:47:38.643Z,7.70
2022-10-06T04:48:37.651Z,9.60
2022-10-06T04:49:37.622Z,7.70
2022-10-06T04:50:37.608Z,6.20
2022-10-06T04:51:37.603Z,8.80
2022-10-06T04:52:37.607Z,7.10
2022-10-06T04:53:37.585Z,5.50
2022-10-06T04:54:37.591Z,8.10
2022-10-06T04:55:37.573Z,7.30
2022-10-06T04:56:37.557Z,6.70
2022-10-06T04:57:37.545Z,5.40
2022-10-06T04:58:37.556Z,6.20
2022-10-06T04:59:37.531Z,4.20
2022-10-06T05:00:37.593Z,8.00
2022-10-06T05:01:37.525Z,7.50
2022-10-06T05:02:37.508Z,5.00
2022-10-06T05:03:37.491Z,6.50
2022-10-06T05:04:37.513Z,7.40
2022-10-06T05:05:37.481Z,7.60
2022-10-06T05:06:37.480Z,9.20
2022-10-06T05:07:37.476Z,7.80
2022-10-06T05:08:37.468Z,8.10
2022-10-06T05:09:37.444Z,6.80
2022-10-06T05:10:37.440Z,7.30
2022-10-06T05:11:37.443Z,9.30
2022-10-06T05:12:37.424Z,7.60
2022-10-06T05:13:37.423Z,6.40
2022-10-06T05:14:37.399Z,8.70
2022-10-06T05:15:37.392Z,7.70
2022-10-06T05:16:37.455Z,6.50
2022-10-06T05:17:37.406Z,7.10
2022-10-06T05:18:37.376Z,6.10
2022-10-06T05:19:37.389Z,7.80
2022-10-06T05:20:37.351Z,7.30
2022-10-06T05:21:37.350Z,5.50
2022-10-06T05:22:37.337Z,9.00
2022-10-06T05:23:37.333Z,9.40
2022-10-06T05:24:37.340Z,9.30
2022-10-06T05:25:37.300Z,5.30
2022-10-06T05:26:37.313Z,6.70
2022-10-06T05:27:37.298Z,10.30
2022-10-06T05:28:37.338Z,8.60
2022-10-06T05:29:37.280Z,9.50
2022-10-06T05:30:37.296Z,9.30
2022-10-06T05:31:37.288Z,8.50
2022-10-06T05:32:37.253Z,7.40
2022-10-06T05:33:37.241Z,7.60
2022-10-06T05:34:37.227Z,9.40
2022-10-06T05:35:37.244Z,8.10
2022-10-06T05:36:37.224Z,7.60
2022-10-06T05:37:37.225Z,5.60
2022-10-06T05:38:37.210Z,7.90
2022-10-06T05:39:37.189Z,6.40
2022-10-06T05:40:37.192Z,8.40
2022-10-06T05:41:37.194Z,6.90
2022-10-06T05:42:37.170Z,5.90
2022-10-06T05:43:37.168Z,6.10
2022-10-06T05:44:37.175Z,6.50
2022-10-06T05:45:37.200Z,7.20
2022-10-06T05:46:37.153Z,7.80
2022-10-06T05:47:37.178Z,9.60
2022-10-06T05:48:37.124Z,9.00
2022-10-06T05:49:37.117Z,9.00
2022-10-06T05:50:37.121Z,9.60
2022-10-06T05:51:37.096Z,8.50
2022-10-06T05:52:37.091Z,7.40
2022-10-06T05:53:37.098Z,6.60
2022-10-06T05:54:37.070Z,10.80
2022-10-06T05:55:37.054Z,8.70
2022-10-06T05:56:37.075Z,5.40
2022-10-06T05:57:37.038Z,11.70
2022-10-06T05:58:37.040Z,9.50
2022-10-06T05:59:37.062Z,9.60
2022-10-06T06:00:37.024Z,6.70
2022-10-06T06:01:37.120Z,7.90
2022-10-06T06:02:37.108Z,6.20
2022-10-06T06:03:36.983Z,7.20
2022-10-06T06:04:36.985Z,9.90
2022-10-06T06:05:36.995Z,8.40
2022-10-06T06:06:36.964Z,8.90
2022-10-06T06:07:36.961Z,5.90
2022-10-06T06:08:36.948Z,10.00
2022-10-06T06:09:37.055Z,7.90
2022-10-06T06:10:36.929Z,7.10
2022-10-06T06:11:36.932Z,8.20
2022-10-06T06:12:36.907Z,7.90
2022-10-06T06:13:36.903Z,7.50
2022-10-06T06:14:36.931Z,7.60
2022-10-06T06:15:36.875Z,7.50
2022-10-06T06:16:36.930Z,6.50
2022-10-06T06:17:36.867Z,8.00
2022-10-06T06:18:36.869Z,10.20
2022-10-06T06:19:36.855Z,9.30
2022-10-06T06:20:36.855Z,9.50
2022-10-06T06:21:36.844Z,8.70
2022-10-06T06:22:36.819Z,8.60
2022-10-06T06:23:36.807Z,9.40
2022-10-06T06:24:36.797Z,9.70
2022-10-06T06:25:36.859Z,9.50
2022-10-06T06:26:36.786Z,7.80
2022-10-06T06:27:36.767Z,8.60
2022-10-06T06:28:36.807Z,9.30
2022-10-06T06:29:36.752Z,8.70
2022-10-06T06:30:36.758Z,8.10
2022-10-06T06:31:36.790Z,8.80
2022-10-06T06:32:36.754Z,7.30
2022-10-06T06:33:36.722Z,10.90
2022-10-06T06:34:36.737Z,9.10
2022-10-06T06:35:36.705Z,7.50
2022-10-06T06:36:36.725Z,7.80
2022-10-06T06:37:36.687Z,7.10
2022-10-06T06:38:36.683Z,8.10
2022-10-06T06:39:36.674Z,8.40
2022-10-06T06:40:36.678Z,8.20
2022-10-06T06:41:36.654Z,6.80
2022-10-06T06:42:36.666Z,7.80
2022-10-06T06:43:36.640Z,6.60
2022-10-06T06:44:36.637Z,7.00
2022-10-06T06:45:36.620Z,9.70
2022-10-06T06:46:36.675Z,7.30
2022-10-06T06:47:36.613Z,8.50
2022-10-06T06:48:36.617Z,6.80
2022-10-06T06:49:36.613Z,8.00
2022-10-06T06:50:36.586Z,9.50
2022-10-06T06:51:36.581Z,7.60
2022-10-06T06:52:36.574Z,8.20
2022-10-06T06:53:36.568Z,9.30
2022-10-06T06:54:36.574Z,7.30
2022-10-06T06:55:36.569Z,8.00
2022-10-06T06:56:36.547Z,9.20
2022-10-06T06:57:36.555Z,10.40
2022-10-06T06:58:36.523Z,7.10
2022-10-06T06:59:36.536Z,8.60
2022-10-06T07:00:36.552Z,8.10
2022-10-06T07:01:36.656Z,6.70
2022-10-06T07:02:36.495Z,7.00
2022-10-06T07:03:56.765Z,7.90
2022-10-06T07:04:37.518Z,6.90
2022-10-06T07:05:36.467Z,7.50
2022-10-06T07:06:36.470Z,8.50
2022-10-06T07:07:36.459Z,6.90
2022-10-06T07:08:36.450Z,6.60
2022-10-06T07:09:36.464Z,6.40
2022-10-06T07:10:36.458Z,8.80
2022-10-06T07:11:36.434Z,7.70
2022-10-06T07:12:36.427Z,10.00
2022-10-06T07:13:36.409Z,10.40
2022-10-06T07:14:36.441Z,8.80
2022-10-06T07:15:36.443Z,9.10
2022-10-06T07:16:36.418Z,8.30
2022-10-06T07:17:36.390Z,8.40
2022-10-06T07:18:36.380Z,7.80
2022-10-06T07:19:36.372Z,8.80
2022-10-06T07:20:36.364Z,8.10
2022-10-06T07:21:36.356Z,7.20
2022-10-06T07:22:36.367Z,7.50
2022-10-06T07:23:36.380Z,7.50
2022-10-06T07:24:36.335Z,7.90
2022-10-06T07:25:36.328Z,7.40
2022-10-06T07:26:36.328Z,7.20
2022-10-06T07:27:36.325Z,7.80
2022-10-06T07:28:36.399Z,5.40
2022-10-06T07:29:36.299Z,6.00
2022-10-06T07:30:40.551Z,8.10
2022-10-06T07:31:36.355Z,7.70
2022-10-06T07:32:36.295Z,7.40
2022-10-06T07:33:36.274Z,7.20
2022-10-06T07:34:36.304Z,8.70
2022-10-06T07:35:36.270Z,7.30
2022-10-06T07:36:36.254Z,7.90
2022-10-06T07:37:36.252Z,8.10
2022-10-06T07:38:36.263Z,8.30
2022-10-06T07:39:36.233Z,7.30
2022-10-06T07:40:36.243Z,7.60
2022-10-06T07:41:36.220Z,7.20
2022-10-06T07:42:36.215Z,7.80
2022-10-06T07:43:36.220Z,6.70
2022-10-06T07:44:36.197Z,8.90
2022-10-06T07:45:36.308Z,8.30
2022-10-06T07:46:36.185Z,7.10
2022-10-06T07:47:36.183Z,7.80
2022-10-06T07:48:36.162Z,7.70
2022-10-06T07:49:36.175Z,8.10
2022-10-06T07:50:36.163Z,10.00
2022-10-06T07:51:36.173Z,8.10
2022-10-06T07:52:36.139Z,6.50
2022-10-06T07:53:36.128Z,7.30
2022-10-06T07:54:36.121Z,8.30
2022-10-06T07:55:36.131Z,9.70
2022-10-06T07:56:36.120Z,7.60
2022-10-06T07:57:36.106Z,8.40
2022-10-06T07:58:36.107Z,8.10
2022-10-06T07:59:36.088Z,9.60
2022-10-06T08:00:36.124Z,8.80
2022-10-06T08:01:36.125Z,8.90
2022-10-06T08:02:36.398Z,8.00
2022-10-06T08:03:36.069Z,7.90
2022-10-06T08:04:36.057Z,9.50
2022-10-06T08:05:36.050Z,10.20
2022-10-06T08:06:36.067Z,11.50
2022-10-06T08:07:36.038Z,11.80
2022-10-06T08:08:36.028Z,7.90
2022-10-06T08:09:36.011Z,10.00
2022-10-06T08:10:36.014Z,8.40
2022-10-06T08:11:35.996Z,9.80
2022-10-06T08:12:36.091Z,9.50
2022-10-06T08:13:35.983Z,12.50
2022-10-06T08:14:35.982Z,11.80
2022-10-06T08:15:35.982Z,10.90
2022-10-06T08:16:36.022Z,10.10
2022-10-06T08:17:35.953Z,10.30
2022-10-06T08:18:51.277Z,10.10
2022-10-06T08:19:36.937Z,8.10
2022-10-06T08:20:35.957Z,11.10
2022-10-06T08:21:35.974Z,10.50
2022-10-06T08:22:35.912Z,8.30
2022-10-06T08:23:42.932Z,9.90
2022-10-06T08:25:01.043Z,9.00
2022-10-06T08:25:36.898Z,9.70
2022-10-06T08:26:35.898Z,11.20
2022-10-06T08:27:35.903Z,9.20
2022-10-06T08:28:35.938Z,8.70
2022-10-06T08:29:35.861Z,10.10
2022-10-06T08:30:35.859Z,10.00
2022-10-06T08:31:35.876Z,9.70
2022-10-06T08:32:35.835Z,7.70
2022-10-06T08:33:35.857Z,8.00
2022-10-06T08:34:35.828Z,31.50
2022-10-06T08:35:35.820Z,17.70
2022-10-06T08:36:35.820Z,9.10
2022-10-06T08:37:35.808Z,11.20
2022-10-06T08:38:35.841Z,13.00
2022-10-06T08:39:35.790Z,9.20
2022-10-06T08:40:35.806Z,9.20
2022-10-06T08:41:35.783Z,8.00
2022-10-06T08:42:35.778Z,9.70
2022-10-06T08:43:35.759Z,13.60
2022-10-06T08:44:35.756Z,10.40
2022-10-06T08:45:38.731Z,10.00
2022-10-06T08:46:35.754Z,9.00
2022-10-06T08:47:35.761Z,11.70
2022-10-06T08:48:35.763Z,7.30
2022-10-06T08:49:35.742Z,9.10
2022-10-06T08:50:35.711Z,10.50
2022-10-06T08:51:35.732Z,8.80
2022-10-06T08:52:35.735Z,10.40
2022-10-06T08:53:35.691Z,10.30
2022-10-06T08:54:35.688Z,10.50
2022-10-06T08:55:35.670Z,8.80
2022-10-06T08:56:35.669Z,10.30
2022-10-06T08:57:35.663Z,12.90
2022-10-06T08:58:35.681Z,11.60
2022-10-06T08:59:35.669Z,7.30
2022-10-06T09:00:35.644Z,8.10
2022-10-06T09:01:35.675Z,10.10
2022-10-06T09:02:35.697Z,9.10
2022-10-06T09:03:35.623Z,10.50
2022-10-06T09:04:35.649Z,8.90
2022-10-06T09:05:35.624Z,6.60
2022-10-06T09:06:35.645Z,12.40
2022-10-06T09:07:35.610Z,9.70
2022-10-06T09:08:35.585Z,10.10
2022-10-06T09:09:35.593Z,7.90
2022-10-06T09:10:35.605Z,8.60
2022-10-06T09:11:35.583Z,10.10
2022-10-06T09:12:35.558Z,10.90
2022-10-06T09:13:35.568Z,11.20
2022-10-06T09:14:35.564Z,8.90
2022-10-06T09:15:35.538Z,8.20
2022-10-06T09:16:35.589Z,8.50
2022-10-06T09:17:35.527Z,10.20
2022-10-06T09:19:07.612Z,10.90
2022-10-06T09:19:36.520Z,10.20
2022-10-06T09:20:35.512Z,6.40
2022-10-06T09:21:35.534Z,9.70
2022-10-06T09:22:35.488Z,8.70
2022-10-06T09:23:35.478Z,7.80
2022-10-06T09:24:35.473Z,9.50
2022-10-06T09:25:35.475Z,9.50
2022-10-06T09:26:36.168Z,8.60
2022-10-06T09:27:35.464Z,11.20
2022-10-06T09:28:35.483Z,11.20
2022-10-06T09:29:35.440Z,11.10
2022-10-06T09:30:35.443Z,8.00
2022-10-06T09:31:35.449Z,8.40
2022-10-06T09:32:35.416Z,7.40
2022-10-06T09:33:35.425Z,9.60
2022-10-06T09:34:35.408Z,8.00
2022-10-06T09:35:35.401Z,8.20
2022-10-06T09:36:35.390Z,8.60
2022-10-06T09:37:35.377Z,8.30
2022-10-06T09:38:35.392Z,7.00
2022-10-06T09:39:35.375Z,8.60
2022-10-06T09:40:35.391Z,11.10
2022-10-06T09:41:35.352Z,10.10
2022-10-06T09:42:35.345Z,10.30
2022-10-06T09:43:35.326Z,10.10
2022-10-06T09:44:35.382Z,10.00
2022-10-06T09:45:35.312Z,10.00
2022-10-06T09:46:35.318Z,10.00
2022-10-06T09:47:35.291Z,9.30
2022-10-06T09:48:35.289Z,10.70
2022-10-06T09:49:35.286Z,9.30
2022-10-06T09:50:35.303Z,13.50
2022-10-06T09:51:35.273Z,9.50
2022-10-06T09:52:35.259Z,7.60
2022-10-06T09:53:37.646Z,7.30
2022-10-06T09:54:35.245Z,11.40
2022-10-06T09:55:35.249Z,11.90
2022-10-06T09:56:35.232Z,10.10
2022-10-06T09:57:35.213Z,10.80
2022-10-06T09:58:35.202Z,11.00
2022-10-06T09:59:39.985Z,10.50
2022-10-06T10:00:35.310Z,8.60
2022-10-06T10:01:35.218Z,8.80
2022-10-06T10:02:35.245Z,7.90
2022-10-06T10:03:35.169Z,9.70
2022-10-06T10:04:35.168Z,7.00
2022-10-06T10:05:35.151Z,8.50
2022-10-06T10:06:35.157Z,11.60
2022-10-06T10:07:35.161Z,6.10
2022-10-06T10:09:35.139Z,7.50
2022-10-06T10:10:35.130Z,10.50
2022-10-06T10:11:35.129Z,7.50
2022-10-06T10:12:35.105Z,8.40
2022-10-06T10:13:35.101Z,8.40
2022-10-06T10:14:35.118Z,9.10
2022-10-06T10:15:35.088Z,8.40
2022-10-06T10:16:35.185Z,9.60
2022-10-06T10:17:35.099Z,8.60
2022-10-06T10:18:35.057Z,6.70
2022-10-06T10:19:35.049Z,7.90
2022-10-06T10:20:35.052Z,10.10
2022-10-06T10:21:35.046Z,8.90
2022-10-06T10:22:35.060Z,9.50
2022-10-06T10:23:35.045Z,7.80
2022-10-06T10:24:35.022Z,8.60
2022-10-06T10:25:35.001Z,7.90
2022-10-06T10:26:35.010Z,8.60
2022-10-06T10:27:35.001Z,7.90
2022-10-06T10:28:35.096Z,9.30
2022-10-06T10:29:34.977Z,9.60
2022-10-06T10:30:34.972Z,9.70
2022-10-06T10:31:34.985Z,9.60
2022-10-06T10:32:34.954Z,8.10
2022-10-06T10:33:34.977Z,8.70
2022-10-06T10:34:34.945Z,12.90
2022-10-06T10:35:34.931Z,7.00
2022-10-06T10:36:34.937Z,6.30
2022-10-06T10:37:34.918Z,10.80
2022-10-06T10:38:34.923Z,8.50
2022-10-06T10:39:34.926Z,10.40
2022-10-06T10:40:34.902Z,8.10
2022-10-06T10:41:34.888Z,8.50
2022-10-06T10:42:34.888Z,8.60
2022-10-06T10:43:34.878Z,8.80
2022-10-06T10:44:34.897Z,7.70
2022-10-06T10:45:34.879Z,7.40
2022-10-06T10:46:34.943Z,10.50
2022-10-06T10:47:34.878Z,7.00
2022-10-06T10:48:34.848Z,12.60
2022-10-06T10:49:34.832Z,10.20
2022-10-06T10:50:34.874Z,10.80
2022-10-06T10:51:34.817Z,9.30
2022-10-06T10:52:34.814Z,10.00
2022-10-06T10:53:36.579Z,11.60
2022-10-06T10:54:34.824Z,9.30
2022-10-06T10:55:34.796Z,7.70
2022-10-06T10:56:34.817Z,8.00
2022-10-06T10:57:34.777Z,8.90
2022-10-06T10:58:34.793Z,9.40
2022-10-06T10:59:34.762Z,9.90
2022-10-06T11:00:34.816Z,7.10
2022-10-06T11:01:34.819Z,8.60
2022-10-06T11:02:34.768Z,9.10
2022-10-06T11:03:34.775Z,8.40
2022-10-06T11:04:34.735Z,8.70
2022-10-06T11:05:34.720Z,8.70
2022-10-06T11:06:34.723Z,7.40
2022-10-06T11:07:34.729Z,7.50
2022-10-06T11:08:34.700Z,7.50
2022-10-06T11:09:34.700Z,8.10
2022-10-06T11:10:34.688Z,8.00
2022-10-06T11:11:34.688Z,10.30
2022-10-06T11:12:34.700Z,9.70
2022-10-06T11:13:34.678Z,11.10
2022-10-06T11:14:34.704Z,10.10
2022-10-06T11:15:34.652Z,9.00
2022-10-06T11:16:34.704Z,10.80
2022-10-06T11:17:34.634Z,9.10
2022-10-06T11:18:34.643Z,6.30
2022-10-06T11:19:34.630Z,8.00
2022-10-06T11:20:34.611Z,9.00
2022-10-06T11:21:34.630Z,8.00
2022-10-06T11:22:34.602Z,8.50
2022-10-06T11:23:34.595Z,9.60
2022-10-06T11:24:34.591Z,8.00
2022-10-06T11:25:35.243Z,9.00
2022-10-06T11:26:34.572Z,7.60
2022-10-06T11:27:34.592Z,7.20
2022-10-06T11:28:34.623Z,9.80
2022-10-06T11:29:34.552Z,7.80
2022-10-06T11:30:34.549Z,7.80
2022-10-06T11:31:34.602Z,9.00
2022-10-06T11:32:34.522Z,7.70
2022-10-06T11:33:34.525Z,6.80
2022-10-06T11:34:34.505Z,8.20
2022-10-06T11:35:34.512Z,7.60
2022-10-06T11:36:34.502Z,11.30
2022-10-06T11:37:34.490Z,9.30
2022-10-06T11:38:34.489Z,7.90
2022-10-06T11:39:34.490Z,7.80
2022-10-06T11:40:34.467Z,9.30
2022-10-06T11:41:34.463Z,9.40
2022-10-06T11:42:34.457Z,10.60
2022-10-06T11:43:34.452Z,6.60
2022-10-06T11:44:34.456Z,7.30
2022-10-06T11:45:34.528Z,10.10
2022-10-06T11:46:35.746Z,7.10
2022-10-06T11:47:35.596Z,9.10
2022-10-06T11:48:34.411Z,9.30
2022-10-06T11:49:34.405Z,8.70
2022-10-06T11:50:34.421Z,7.50
2022-10-06T11:51:34.377Z,9.20
2022-10-06T11:52:34.401Z,9.50
2022-10-06T11:53:34.368Z,9.70
2022-10-06T11:54:34.364Z,9.10
2022-10-06T11:55:34.352Z,9.80
2022-10-06T11:56:34.352Z,8.20
2022-10-06T11:57:34.365Z,12.20
2022-10-06T11:58:42.595Z,9.10
2022-10-06T11:59:35.336Z,7.50
2022-10-06T12:00:34.328Z,8.90
2022-10-06T12:01:34.328Z,8.30
2022-10-06T12:02:34.419Z,9.40
2022-10-06T12:03:34.300Z,10.30
2022-10-06T12:04:34.307Z,8.90
2022-10-06T12:05:56.252Z,9.50
2022-10-06T12:06:35.284Z,8.10
2022-10-06T12:07:34.264Z,9.10
2022-10-06T12:08:34.272Z,10.00
2022-10-06T12:09:34.272Z,8.50
2022-10-06T12:10:34.279Z,8.60
2022-10-06T12:11:34.237Z,8.80
2022-10-06T12:12:34.234Z,9.20
2022-10-06T12:17:35.193Z,7.50
2022-10-06T12:18:34.189Z,9.20
2022-10-06T12:19:34.188Z,6.60
2022-10-06T12:20:34.189Z,7.80
2022-10-06T12:21:34.166Z,8.80
2022-10-06T12:22:34.154Z,7.70
2022-10-06T12:23:34.158Z,10.00
2022-10-06T12:24:34.160Z,10.00
2022-10-06T12:25:34.140Z,9.90
2022-10-06T12:26:34.172Z,6.80
2022-10-06T12:27:34.128Z,8.90
2022-10-06T12:28:34.182Z,8.20
2022-10-06T12:29:34.121Z,8.10
2022-10-06T12:30:34.165Z,6.20
2022-10-06T12:31:34.095Z,9.30
2022-10-06T12:32:34.126Z,8.60
2022-10-06T12:33:34.075Z,8.20
2022-10-06T12:34:34.077Z,9.40
2022-10-06T12:35:34.095Z,9.80
2022-10-06T12:36:34.058Z,8.90
2022-10-06T12:37:34.077Z,7.30
2022-10-06T12:38:34.052Z,7.80
2022-10-06T12:39:34.024Z,8.50
2022-10-06T12:40:34.050Z,8.10
2022-10-06T12:41:34.038Z,7.20
2022-10-06T12:42:34.013Z,8.10
2022-10-06T12:43:34.026Z,9.10
2022-10-06T12:44:33.994Z,9.70
2022-10-06T12:45:33.985Z,9.40
2022-10-06T12:46:34.062Z,9.10
2022-10-06T12:47:33.977Z,7.90
2022-10-06T12:48:33.987Z,7.70
2022-10-06T12:49:33.960Z,7.80
2022-10-06T12:50:33.948Z,6.10
2022-10-06T12:52:33.938Z,7.10
2022-10-06T12:53:33.952Z,6.50
2022-10-06T12:54:33.928Z,8.20
2022-10-06T12:55:33.910Z,8.60
2022-10-06T12:56:33.915Z,8.90
2022-10-06T12:57:33.898Z,8.00
2022-10-06T12:58:33.901Z,8.30
2022-10-06T12:59:33.927Z,8.60
2022-10-06T13:00:33.884Z,7.00
2022-10-06T13:01:33.923Z,7.30
2022-10-06T13:02:33.929Z,8.00
2022-10-06T13:03:33.859Z,7.40
2022-10-06T13:04:33.849Z,7.70
2022-10-06T13:05:33.868Z,8.00
2022-10-06T13:06:33.869Z,8.50
2022-10-06T13:07:33.837Z,8.90
2022-10-06T13:08:33.835Z,9.30
2022-10-06T13:09:33.816Z,6.70
2022-10-06T13:10:33.918Z,8.00
2022-10-06T13:11:33.825Z,7.60
2022-10-06T13:12:33.823Z,7.10
2022-10-06T13:13:33.794Z,7.90
2022-10-06T13:14:33.789Z,8.30
2022-10-06T13:15:33.804Z,8.90
2022-10-06T13:16:33.807Z,8.50
2022-10-06T13:17:33.785Z,8.60
2022-10-06T13:18:33.757Z,8.20
2022-10-06T13:19:33.750Z,6.80
2022-10-06T13:20:33.741Z,7.90